sensor_id;sensor_type;location;lat;lon;timestamp;temperature;humidity
25092;DHT22;13082;52.374;4.946;2023-02-02T00:01:44;8.70;99.90
25092;DHT22;13082;52.374;4.946;2023-02-02T00:04:22;8.80;99.90
25092;DHT22;13082;52.374;4.946;2023-02-02T00:06:48;8.80;99.90
25092;DHT22;13082;52.374;4.946;2023-02-02T00:09:16;8.80;99.90
25092;DHT22;13082;52.374;4.946;2023-02-02T00:11:43;8.80;99.90
25092;DHT22;13082;52.374;4.946;2023-02-02T00:14:10;8.80;99.90
25092;DHT22;13082;52.374;4.946;2023-02-02T00:16:45;8.80;99.90
25092;DHT22;13082;52.374;4.946;2023-02-02T00:19:25;8.80;99.90
25092;DHT22;13082;52.374;4.946;2023-02-02T00:21:53;8.80;99.90
25092;DHT22;13082;52.374;4.946;2023-02-02T00:24:19;8.80;99.90
25092;DHT22;13082;52.374;4.946;2023-02-02T00:26:48;8.80;99.90
25092;DHT22;13082;52.374;4.946;2023-02-02T00:29:20;8.80;99.90
25092;DHT22;13082;52.374;4.946;2023-02-02T00:31:46;8.70;99.90
25092;DHT22;13082;52.374;4.946;2023-02-02T00:34:13;8.70;99.90
25092;DHT22;13082;52.374;4.946;2023-02-02T00:36:39;8.70;99.90
25092;DHT22;13082;52.374;4.946;2023-02-02T00:39:06;8.60;99.90
25092;DHT22;13082;52.374;4.946;2023-02-02T00:41:32;8.50;99.90
25092;DHT22;13082;52.374;4.946;2023-02-02T00:43:57;8.50;99.90
25092;DHT22;13082;52.374;4.946;2023-02-02T00:46:42;8.50;99.90
25092;DHT22;13082;52.374;4.946;2023-02-02T00:49:08;8.40;99.90
25092;DHT22;13082;52.374;4.946;2023-02-02T00:51:35;8.30;99.90
25092;DHT22;13082;52.374;4.946;2023-02-02T00:54:01;8.30;99.90
25092;DHT22;13082;52.374;4.946;2023-02-02T00:56:27;8.20;99.90
25092;DHT22;13082;52.374;4.946;2023-02-02T00:58:52;8.20;99.90
25092;DHT22;13082;52.374;4.946;2023-02-02T01:01:19;8.10;99.90
25092;DHT22;13082;52.374;4.946;2023-02-02T01:03:52;8.20;99.90
25092;DHT22;13082;52.374;4.946;2023-02-02T01:06:17;8.20;99.90
25092;DHT22;13082;52.374;4.946;2023-02-02T01:08:43;8.20;99.90
25092;DHT22;13082;52.374;4.946;2023-02-02T01:11:09;8.20;99.90
25092;DHT22;13082;52.374;4.946;2023-02-02T01:13:35;8.20;99.90
25092;DHT22;13082;52.374;4.946;2023-02-02T01:16:02;8.20;99.90
25092;DHT22;13082;52.374;4.946;2023-02-02T01:18:28;8.20;99.90
25092;DHT22;13082;52.374;4.946;2023-02-02T01:21:06;8.20;99.90
25092;DHT22;13082;52.374;4.946;2023-02-02T01:23:33;8.20;99.90
25092;DHT22;13082;52.374;4.946;2023-02-02T01:26:00;8.20;99.90
25092;DHT22;13082;52.374;4.946;2023-02-02T01:28:27;8.20;99.90
25092;DHT22;13082;52.374;4.946;2023-02-02T01:30:52;8.20;99.90
25092;DHT22;13082;52.374;4.946;2023-02-02T01:33:19;8.20;99.90
25092;DHT22;13082;52.374;4.946;2023-02-02T01:35:52;8.20;99.90
25092;DHT22;13082;52.374;4.946;2023-02-02T01:38:18;8.20;99.90
25092;DHT22;13082;52.374;4.946;2023-02-02T01:43:27;8.20;99.90
25092;DHT22;13082;52.374;4.946;2023-02-02T01:45:54;8.20;99.90
25092;DHT22;13082;52.374;4.946;2023-02-02T01:48:25;8.20;99.90
25092;DHT22;13082;52.374;4.946;2023-02-02T01:50:56;8.20;99.90
25092;DHT22;13082;52.374;4.946;2023-02-02T01:53:23;8.20;99.90
25092;DHT22;13082;52.374;4.946;2023-02-02T01:55:49;8.20;99.90
25092;DHT22;13082;52.374;4.946;2023-02-02T01:58:36;8.20;99.90
25092;DHT22;13082;52.374;4.946;2023-02-02T02:01:04;8.20;99.90
25092;DHT22;13082;52.374;4.946;2023-02-02T02:03:32;8.30;99.90
25092;DHT22;13082;52.374;4.946;2023-02-02T02:06:06;8.20;99.90
25092;DHT22;13082;52.374;4.946;2023-02-02T02:08:58;8.20;99.90
25092;DHT22;13082;52.374;4.946;2023-02-02T02:11:25;8.20;99.90
25092;DHT22;13082;52.374;4.946;2023-02-02T02:13:53;8.10;99.90
25092;DHT22;13082;52.374;4.946;2023-02-02T02:16:51;8.20;99.90
25092;DHT22;13082;52.374;4.946;2023-02-02T02:36:18;8.10;99.90
25092;DHT22;13082;52.374;4.946;2023-02-02T02:41:32;8.20;99.90
25092;DHT22;13082;52.374;4.946;2023-02-02T02:44:03;8.30;99.90
25092;DHT22;13082;52.374;4.946;2023-02-02T02:46:29;8.30;99.90
25092;DHT22;13082;52.374;4.946;2023-02-02T02:48:57;8.30;99.90
25092;DHT22;13082;52.374;4.946;2023-02-02T02:51:44;8.40;99.90
25092;DHT22;13082;52.374;4.946;2023-02-02T02:54:22;8.40;99.90
25092;DHT22;13082;52.374;4.946;2023-02-02T02:57:40;8.40;99.90
25092;DHT22;13082;52.374;4.946;2023-02-02T03:02:56;8.40;99.90
25092;DHT22;13082;52.374;4.946;2023-02-02T03:10:51;8.50;99.90
25092;DHT22;13082;52.374;4.946;2023-02-02T03:13:18;8.50;99.90
25092;DHT22;13082;52.374;4.946;2023-02-02T03:15:44;8.50;99.90
25092;DHT22;13082;52.374;4.946;2023-02-02T03:18:12;8.50;99.90
25092;DHT22;13082;52.374;4.946;2023-02-02T03:20:38;8.50;99.90
25092;DHT22;13082;52.374;4.946;2023-02-02T03:23:04;8.50;99.90
25092;DHT22;13082;52.374;4.946;2023-02-02T03:25:29;8.50;99.90
25092;DHT22;13082;52.374;4.946;2023-02-02T03:27:55;8.50;99.90
25092;DHT22;13082;52.374;4.946;2023-02-02T03:30:21;8.50;99.90
25092;DHT22;13082;52.374;4.946;2023-02-02T03:32:47;8.50;99.90
25092;DHT22;13082;52.374;4.946;2023-02-02T03:35:13;8.50;99.90
25092;DHT22;13082;52.374;4.946;2023-02-02T03:37:39;8.60;99.90
25092;DHT22;13082;52.374;4.946;2023-02-02T03:40:05;8.60;99.90
25092;DHT22;13082;52.374;4.946;2023-02-02T03:42:31;8.60;99.90
25092;DHT22;13082;52.374;4.946;2023-02-02T03:44:56;8.60;99.90
25092;DHT22;13082;52.374;4.946;2023-02-02T03:47:22;8.60;99.90
25092;DHT22;13082;52.374;4.946;2023-02-02T03:49:48;8.60;99.90
25092;DHT22;13082;52.374;4.946;2023-02-02T03:52:13;8.60;99.90
25092;DHT22;13082;52.374;4.946;2023-02-02T03:54:39;8.60;99.90
25092;DHT22;13082;52.374;4.946;2023-02-02T03:57:04;8.50;99.90
25092;DHT22;13082;52.374;4.946;2023-02-02T03:59:30;8.50;99.90
25092;DHT22;13082;52.374;4.946;2023-02-02T04:01:55;8.60;99.90
25092;DHT22;13082;52.374;4.946;2023-02-02T04:04:21;8.60;99.90
25092;DHT22;13082;52.374;4.946;2023-02-02T04:06:47;8.60;99.90
25092;DHT22;13082;52.374;4.946;2023-02-02T04:09:12;8.60;99.90
25092;DHT22;13082;52.374;4.946;2023-02-02T04:11:38;8.70;99.90
25092;DHT22;13082;52.374;4.946;2023-02-02T04:14:03;8.60;99.90
25092;DHT22;13082;52.374;4.946;2023-02-02T04:16:29;8.60;99.90
25092;DHT22;13082;52.374;4.946;2023-02-02T04:18:59;8.60;99.90
25092;DHT22;13082;52.374;4.946;2023-02-02T04:21:25;8.60;99.90
25092;DHT22;13082;52.374;4.946;2023-02-02T04:23:50;8.60;99.90
25092;DHT22;13082;52.374;4.946;2023-02-02T04:26:16;8.60;99.90
25092;DHT22;13082;52.374;4.946;2023-02-02T04:28:41;8.60;99.90
25092;DHT22;13082;52.374;4.946;2023-02-02T04:31:07;8.60;99.90
25092;DHT22;13082;52.374;4.946;2023-02-02T04:33:33;8.70;99.90
25092;DHT22;13082;52.374;4.946;2023-02-02T04:36:00;8.70;99.90
25092;DHT22;13082;52.374;4.946;2023-02-02T04:38:25;8.70;99.90
25092;DHT22;13082;52.374;4.946;2023-02-02T04:40:51;8.70;99.90
25092;DHT22;13082;52.374;4.946;2023-02-02T04:43:16;8.70;99.90
25092;DHT22;13082;52.374;4.946;2023-02-02T04:45:42;8.70;99.90
25092;DHT22;13082;52.374;4.946;2023-02-02T04:48:08;8.70;99.90
25092;DHT22;13082;52.374;4.946;2023-02-02T04:50:34;8.70;99.90
25092;DHT22;13082;52.374;4.946;2023-02-02T04:52:59;8.70;99.90
25092;DHT22;13082;52.374;4.946;2023-02-02T04:55:25;8.70;99.90
25092;DHT22;13082;52.374;4.946;2023-02-02T04:57:51;8.70;99.90
25092;DHT22;13082;52.374;4.946;2023-02-02T05:00:16;8.70;99.90
25092;DHT22;13082;52.374;4.946;2023-02-02T05:02:42;8.70;99.90
25092;DHT22;13082;52.374;4.946;2023-02-02T05:05:11;8.70;99.90
25092;DHT22;13082;52.374;4.946;2023-02-02T05:07:37;8.70;99.90
25092;DHT22;13082;52.374;4.946;2023-02-02T05:10:05;8.80;99.90
25092;DHT22;13082;52.374;4.946;2023-02-02T05:12:31;8.80;99.90
25092;DHT22;13082;52.374;4.946;2023-02-02T05:14:57;8.70;99.90
25092;DHT22;13082;52.374;4.946;2023-02-02T05:17:25;8.70;99.90
25092;DHT22;13082;52.374;4.946;2023-02-02T05:19:51;8.70;99.90
25092;DHT22;13082;52.374;4.946;2023-02-02T05:22:16;8.80;99.90
25092;DHT22;13082;52.374;4.946;2023-02-02T05:24:42;8.80;99.90
25092;DHT22;13082;52.374;4.946;2023-02-02T05:27:08;8.80;99.90
25092;DHT22;13082;52.374;4.946;2023-02-02T05:29:33;8.80;99.90
25092;DHT22;13082;52.374;4.946;2023-02-02T05:31:59;8.80;99.90
25092;DHT22;13082;52.374;4.946;2023-02-02T05:34:24;8.80;99.90
25092;DHT22;13082;52.374;4.946;2023-02-02T05:36:50;8.80;99.90
25092;DHT22;13082;52.374;4.946;2023-02-02T05:39:16;8.80;99.90
25092;DHT22;13082;52.374;4.946;2023-02-02T05:41:42;8.80;99.90
25092;DHT22;13082;52.374;4.946;2023-02-02T05:44:10;8.70;99.90
25092;DHT22;13082;52.374;4.946;2023-02-02T05:46:36;8.70;99.90
25092;DHT22;13082;52.374;4.946;2023-02-02T05:49:01;8.70;99.90
25092;DHT22;13082;52.374;4.946;2023-02-02T05:51:33;8.70;99.90
25092;DHT22;13082;52.374;4.946;2023-02-02T05:54:01;8.70;99.90
25092;DHT22;13082;52.374;4.946;2023-02-02T05:56:27;8.70;99.90
25092;DHT22;13082;52.374;4.946;2023-02-02T05:58:53;8.70;99.90
25092;DHT22;13082;52.374;4.946;2023-02-02T06:01:19;8.70;99.90
25092;DHT22;13082;52.374;4.946;2023-02-02T06:03:45;8.70;99.90
25092;DHT22;13082;52.374;4.946;2023-02-02T06:06:12;8.70;99.90
25092;DHT22;13082;52.374;4.946;2023-02-02T06:08:38;8.70;99.90
25092;DHT22;13082;52.374;4.946;2023-02-02T06:11:10;8.70;99.90
25092;DHT22;13082;52.374;4.946;2023-02-02T06:13:36;8.70;99.90
25092;DHT22;13082;52.374;4.946;2023-02-02T06:16:01;8.70;99.90
25092;DHT22;13082;52.374;4.946;2023-02-02T06:18:27;8.60;99.90
25092;DHT22;13082;52.374;4.946;2023-02-02T06:20:59;8.60;99.90
25092;DHT22;13082;52.374;4.946;2023-02-02T06:23:25;8.60;99.90
25092;DHT22;13082;52.374;4.946;2023-02-02T06:25:51;8.60;99.90
25092;DHT22;13082;52.374;4.946;2023-02-02T06:28:16;8.60;99.90
25092;DHT22;13082;52.374;4.946;2023-02-02T06:30:42;8.60;99.90
25092;DHT22;13082;52.374;4.946;2023-02-02T06:33:08;8.70;99.90
25092;DHT22;13082;52.374;4.946;2023-02-02T06:35:33;8.60;99.90
25092;DHT22;13082;52.374;4.946;2023-02-02T06:37:59;8.60;99.90
25092;DHT22;13082;52.374;4.946;2023-02-02T06:40:26;8.60;99.90
25092;DHT22;13082;52.374;4.946;2023-02-02T06:42:59;8.60;99.90
25092;DHT22;13082;52.374;4.946;2023-02-02T06:45:25;8.60;99.90
25092;DHT22;13082;52.374;4.946;2023-02-02T06:47:51;8.60;99.90
25092;DHT22;13082;52.374;4.946;2023-02-02T06:50:17;8.50;99.90
25092;DHT22;13082;52.374;4.946;2023-02-02T06:52:50;8.50;99.90
25092;DHT22;13082;52.374;4.946;2023-02-02T06:55:16;8.50;99.90
25092;DHT22;13082;52.374;4.946;2023-02-02T06:57:42;8.50;99.90
25092;DHT22;13082;52.374;4.946;2023-02-02T07:00:08;8.50;99.90
25092;DHT22;13082;52.374;4.946;2023-02-02T07:02:34;8.50;99.90
25092;DHT22;13082;52.374;4.946;2023-02-02T07:05:00;8.50;99.90
25092;DHT22;13082;52.374;4.946;2023-02-02T07:07:26;8.50;99.90
25092;DHT22;13082;52.374;4.946;2023-02-02T07:09:52;8.60;99.90
25092;DHT22;13082;52.374;4.946;2023-02-02T07:12:17;8.60;99.90
25092;DHT22;13082;52.374;4.946;2023-02-02T07:14:44;8.60;99.90
25092;DHT22;13082;52.374;4.946;2023-02-02T07:17:10;8.60;99.90
25092;DHT22;13082;52.374;4.946;2023-02-02T07:19:35;8.60;99.90
25092;DHT22;13082;52.374;4.946;2023-02-02T07:22:01;8.60;99.90
25092;DHT22;13082;52.374;4.946;2023-02-02T07:24:27;8.60;99.90
25092;DHT22;13082;52.374;4.946;2023-02-02T07:26:53;8.60;99.90
25092;DHT22;13082;52.374;4.946;2023-02-02T07:29:18;8.60;99.90
25092;DHT22;13082;52.374;4.946;2023-02-02T07:31:44;8.60;99.90
25092;DHT22;13082;52.374;4.946;2023-02-02T07:34:10;8.70;99.90
25092;DHT22;13082;52.374;4.946;2023-02-02T07:36:35;8.70;99.90
25092;DHT22;13082;52.374;4.946;2023-02-02T07:39:02;8.70;99.90
25092;DHT22;13082;52.374;4.946;2023-02-02T07:41:29;8.70;99.90
25092;DHT22;13082;52.374;4.946;2023-02-02T07:43:55;8.70;99.90
25092;DHT22;13082;52.374;4.946;2023-02-02T07:46:21;8.70;99.90
25092;DHT22;13082;52.374;4.946;2023-02-02T07:48:47;8.70;99.90
25092;DHT22;13082;52.374;4.946;2023-02-02T07:51:15;8.70;99.90
25092;DHT22;13082;52.374;4.946;2023-02-02T07:53:45;8.70;99.90
25092;DHT22;13082;52.374;4.946;2023-02-02T07:56:19;8.70;99.90
25092;DHT22;13082;52.374;4.946;2023-02-02T07:58:46;8.70;99.90
25092;DHT22;13082;52.374;4.946;2023-02-02T08:01:13;8.70;99.90
25092;DHT22;13082;52.374;4.946;2023-02-02T08:03:39;8.70;99.90
25092;DHT22;13082;52.374;4.946;2023-02-02T08:08:34;8.70;99.90
25092;DHT22;13082;52.374;4.946;2023-02-02T08:11:00;8.70;99.90
25092;DHT22;13082;52.374;4.946;2023-02-02T08:13:26;8.70;99.90
25092;DHT22;13082;52.374;4.946;2023-02-02T08:15:51;8.70;99.90
25092;DHT22;13082;52.374;4.946;2023-02-02T08:18:17;8.70;99.90
25092;DHT22;13082;52.374;4.946;2023-02-02T08:20:42;8.70;99.90
25092;DHT22;13082;52.374;4.946;2023-02-02T08:23:08;8.70;99.90
25092;DHT22;13082;52.374;4.946;2023-02-02T08:25:40;8.70;99.90
25092;DHT22;13082;52.374;4.946;2023-02-02T08:28:06;8.80;99.90
25092;DHT22;13082;52.374;4.946;2023-02-02T08:30:33;8.80;99.90
25092;DHT22;13082;52.374;4.946;2023-02-02T08:32:59;8.80;99.90
25092;DHT22;13082;52.374;4.946;2023-02-02T08:35:24;8.80;99.90
25092;DHT22;13082;52.374;4.946;2023-02-02T08:37:50;8.80;99.90
25092;DHT22;13082;52.374;4.946;2023-02-02T08:40:16;8.80;99.90
25092;DHT22;13082;52.374;4.946;2023-02-02T08:42:41;8.80;99.90
25092;DHT22;13082;52.374;4.946;2023-02-02T08:45:08;8.80;99.90
25092;DHT22;13082;52.374;4.946;2023-02-02T08:47:36;8.80;99.90
25092;DHT22;13082;52.374;4.946;2023-02-02T08:50:02;8.80;99.90
25092;DHT22;13082;52.374;4.946;2023-02-02T08:52:28;8.80;99.90
25092;DHT22;13082;52.374;4.946;2023-02-02T08:54:53;8.80;99.90
25092;DHT22;13082;52.374;4.946;2023-02-02T08:57:19;8.80;99.90
25092;DHT22;13082;52.374;4.946;2023-02-02T08:59:44;8.80;99.90
25092;DHT22;13082;52.374;4.946;2023-02-02T09:02:10;8.80;99.90
25092;DHT22;13082;52.374;4.946;2023-02-02T09:04:38;8.80;99.90
25092;DHT22;13082;52.374;4.946;2023-02-02T09:07:04;8.90;99.90
25092;DHT22;13082;52.374;4.946;2023-02-02T09:09:31;8.90;99.90
25092;DHT22;13082;52.374;4.946;2023-02-02T09:11:56;8.90;99.90
25092;DHT22;13082;52.374;4.946;2023-02-02T09:14:22;8.90;99.90
25092;DHT22;13082;52.374;4.946;2023-02-02T09:16:48;8.90;99.90
25092;DHT22;13082;52.374;4.946;2023-02-02T09:19:13;8.90;99.90
25092;DHT22;13082;52.374;4.946;2023-02-02T09:21:39;8.90;99.90
25092;DHT22;13082;52.374;4.946;2023-02-02T09:24:10;8.90;99.90
25092;DHT22;13082;52.374;4.946;2023-02-02T09:26:36;8.90;99.90
25092;DHT22;13082;52.374;4.946;2023-02-02T09:29:04;8.90;99.90
25092;DHT22;13082;52.374;4.946;2023-02-02T09:31:33;8.90;99.90
25092;DHT22;13082;52.374;4.946;2023-02-02T09:34:07;8.90;99.90
25092;DHT22;13082;52.374;4.946;2023-02-02T09:36:34;8.90;99.90
25092;DHT22;13082;52.374;4.946;2023-02-02T09:38:59;8.90;99.90
25092;DHT22;13082;52.374;4.946;2023-02-02T09:47:22;8.80;99.90
25092;DHT22;13082;52.374;4.946;2023-02-02T09:50:04;8.90;99.90
25092;DHT22;13082;52.374;4.946;2023-02-02T09:52:40;8.90;99.90
25092;DHT22;13082;52.374;4.946;2023-02-02T09:55:27;8.90;99.90
25092;DHT22;13082;52.374;4.946;2023-02-02T09:57:59;8.90;99.90
25092;DHT22;13082;52.374;4.946;2023-02-02T10:00:32;8.90;99.90
25092;DHT22;13082;52.374;4.946;2023-02-02T10:03:14;8.90;99.90
25092;DHT22;13082;52.374;4.946;2023-02-02T10:05:54;9.00;99.90
25092;DHT22;13082;52.374;4.946;2023-02-02T10:08:49;9.00;99.90
25092;DHT22;13082;52.374;4.946;2023-02-02T10:11:28;9.00;99.90
25092;DHT22;13082;52.374;4.946;2023-02-02T10:13:59;9.00;99.90
25092;DHT22;13082;52.374;4.946;2023-02-02T10:16:28;9.00;99.90
25092;DHT22;13082;52.374;4.946;2023-02-02T10:19:02;9.00;99.90
25092;DHT22;13082;52.374;4.946;2023-02-02T10:24:30;9.10;99.90
25092;DHT22;13082;52.374;4.946;2023-02-02T10:27:04;9.10;99.90
25092;DHT22;13082;52.374;4.946;2023-02-02T10:35:15;9.20;99.90
25092;DHT22;13082;52.374;4.946;2023-02-02T10:38:10;9.20;99.90
25092;DHT22;13082;52.374;4.946;2023-02-02T10:44:09;9.30;99.90
25092;DHT22;13082;52.374;4.946;2023-02-02T10:46:39;9.30;99.90
25092;DHT22;13082;52.374;4.946;2023-02-02T10:52:03;9.30;99.90
25092;DHT22;13082;52.374;4.946;2023-02-02T10:54:41;9.30;99.90
25092;DHT22;13082;52.374;4.946;2023-02-02T10:57:12;9.30;99.90
25092;DHT22;13082;52.374;4.946;2023-02-02T10:59:58;9.40;99.90
25092;DHT22;13082;52.374;4.946;2023-02-02T11:02:25;9.40;99.90
25092;DHT22;13082;52.374;4.946;2023-02-02T11:04:51;9.40;99.90
25092;DHT22;13082;52.374;4.946;2023-02-02T11:07:35;9.40;99.90
25092;DHT22;13082;52.374;4.946;2023-02-02T11:10:01;9.40;99.90
25092;DHT22;13082;52.374;4.946;2023-02-02T11:12:33;9.40;99.90
25092;DHT22;13082;52.374;4.946;2023-02-02T11:15:02;9.40;99.90
25092;DHT22;13082;52.374;4.946;2023-02-02T11:17:30;9.50;99.90
25092;DHT22;13082;52.374;4.946;2023-02-02T11:19:56;9.50;99.90
25092;DHT22;13082;52.374;4.946;2023-02-02T11:22:34;9.50;99.90
25092;DHT22;13082;52.374;4.946;2023-02-02T11:25:06;9.40;99.90
25092;DHT22;13082;52.374;4.946;2023-02-02T11:27:38;9.50;99.90
25092;DHT22;13082;52.374;4.946;2023-02-02T11:30:29;9.50;99.90
25092;DHT22;13082;52.374;4.946;2023-02-02T11:32:56;9.50;99.90
25092;DHT22;13082;52.374;4.946;2023-02-02T11:35:24;9.50;99.90
25092;DHT22;13082;52.374;4.946;2023-02-02T11:42:54;9.50;99.90
25092;DHT22;13082;52.374;4.946;2023-02-02T11:45:41;9.50;99.90
25092;DHT22;13082;52.374;4.946;2023-02-02T11:48:20;9.50;99.90
25092;DHT22;13082;52.374;4.946;2023-02-02T11:50:52;9.50;99.90
25092;DHT22;13082;52.374;4.946;2023-02-02T11:53:38;9.50;99.90
25092;DHT22;13082;52.374;4.946;2023-02-02T11:56:09;9.40;99.90
25092;DHT22;13082;52.374;4.946;2023-02-02T11:58:49;9.40;99.90
25092;DHT22;13082;52.374;4.946;2023-02-02T12:01:28;9.40;99.90
25092;DHT22;13082;52.374;4.946;2023-02-02T12:03:56;9.40;99.90
25092;DHT22;13082;52.374;4.946;2023-02-02T12:06:36;9.40;99.90
25092;DHT22;13082;52.374;4.946;2023-02-02T12:09:11;9.50;99.90
25092;DHT22;13082;52.374;4.946;2023-02-02T12:12:02;9.40;99.90
25092;DHT22;13082;52.374;4.946;2023-02-02T12:20:15;9.50;99.90
25092;DHT22;13082;52.374;4.946;2023-02-02T12:25:53;9.40;99.90
25092;DHT22;13082;52.374;4.946;2023-02-02T12:31:18;9.40;99.90
25092;DHT22;13082;52.374;4.946;2023-02-02T12:39:46;9.40;99.90
25092;DHT22;13082;52.374;4.946;2023-02-02T13:12:41;9.20;99.90
25092;DHT22;13082;52.374;4.946;2023-02-02T13:15:15;9.10;99.90
25092;DHT22;13082;52.374;4.946;2023-02-02T13:17:50;9.10;99.90
25092;DHT22;13082;52.374;4.946;2023-02-02T13:20:27;9.10;99.90
25092;DHT22;13082;52.374;4.946;2023-02-02T13:22:59;9.10;99.90
25092;DHT22;13082;52.374;4.946;2023-02-02T13:25:34;9.10;99.90
25092;DHT22;13082;52.374;4.946;2023-02-02T13:28:03;9.00;99.90
25092;DHT22;13082;52.374;4.946;2023-02-02T13:30:34;9.00;99.90
25092;DHT22;13082;52.374;4.946;2023-02-02T13:33:12;9.00;99.90
25092;DHT22;13082;52.374;4.946;2023-02-02T13:35:53;8.90;99.90
25092;DHT22;13082;52.374;4.946;2023-02-02T13:38:22;8.90;99.90
25092;DHT22;13082;52.374;4.946;2023-02-02T13:40:50;8.90;99.90
25092;DHT22;13082;52.374;4.946;2023-02-02T13:43:51;8.90;99.90
25092;DHT22;13082;52.374;4.946;2023-02-02T13:46:51;8.80;99.90
25092;DHT22;13082;52.374;4.946;2023-02-02T13:49:27;8.80;99.90
25092;DHT22;13082;52.374;4.946;2023-02-02T14:00:00;8.80;99.90
25092;DHT22;13082;52.374;4.946;2023-02-02T14:02:45;8.80;99.90
25092;DHT22;13082;52.374;4.946;2023-02-02T14:08:19;8.80;99.90
25092;DHT22;13082;52.374;4.946;2023-02-02T14:13:30;8.90;99.90
25092;DHT22;13082;52.374;4.946;2023-02-02T14:16:46;8.90;99.90
25092;DHT22;13082;52.374;4.946;2023-02-02T14:24:42;8.90;99.90
25092;DHT22;13082;52.374;4.946;2023-02-02T14:34:55;8.80;99.90
25092;DHT22;13082;52.374;4.946;2023-02-02T14:45:48;8.80;99.90
25092;DHT22;13082;52.374;4.946;2023-02-02T14:48:35;8.80;99.90
25092;DHT22;13082;52.374;4.946;2023-02-02T14:51:15;8.90;99.90
25092;DHT22;13082;52.374;4.946;2023-02-02T14:53:48;8.90;99.90
25092;DHT22;13082;52.374;4.946;2023-02-02T14:56:15;8.90;99.90
25092;DHT22;13082;52.374;4.946;2023-02-02T15:14:37;9.00;99.90
25092;DHT22;13082;52.374;4.946;2023-02-02T15:22:44;9.00;99.90
25092;DHT22;13082;52.374;4.946;2023-02-02T15:30:34;9.00;99.90
25092;DHT22;13082;52.374;4.946;2023-02-02T15:33:08;9.00;99.90
25092;DHT22;13082;52.374;4.946;2023-02-02T15:35:38;9.00;99.90
25092;DHT22;13082;52.374;4.946;2023-02-02T15:38:06;9.00;99.90
25092;DHT22;13082;52.374;4.946;2023-02-02T15:40:37;9.00;99.90
25092;DHT22;13082;52.374;4.946;2023-02-02T15:43:05;9.00;99.90
25092;DHT22;13082;52.374;4.946;2023-02-02T15:48:27;9.00;99.90
25092;DHT22;13082;52.374;4.946;2023-02-02T15:51:01;9.00;99.90
25092;DHT22;13082;52.374;4.946;2023-02-02T15:56:17;9.10;99.90
25092;DHT22;13082;52.374;4.946;2023-02-02T15:58:47;9.10;99.90
25092;DHT22;13082;52.374;4.946;2023-02-02T16:01:19;9.10;99.90
25092;DHT22;13082;52.374;4.946;2023-02-02T16:04:15;9.10;99.90
25092;DHT22;13082;52.374;4.946;2023-02-02T16:06:42;9.10;99.90
25092;DHT22;13082;52.374;4.946;2023-02-02T16:09:34;9.10;99.90
25092;DHT22;13082;52.374;4.946;2023-02-02T16:11:58;9.10;99.90
25092;DHT22;13082;52.374;4.946;2023-02-02T16:14:26;9.10;99.90
25092;DHT22;13082;52.374;4.946;2023-02-02T16:16:52;9.10;99.90
25092;DHT22;13082;52.374;4.946;2023-02-02T16:19:23;9.10;99.90
25092;DHT22;13082;52.374;4.946;2023-02-02T16:21:59;9.10;99.90
25092;DHT22;13082;52.374;4.946;2023-02-02T16:26:57;9.10;99.90
25092;DHT22;13082;52.374;4.946;2023-02-02T16:29:24;9.10;99.90
25092;DHT22;13082;52.374;4.946;2023-02-02T16:31:52;9.10;99.90
25092;DHT22;13082;52.374;4.946;2023-02-02T16:39:47;9.10;99.90
25092;DHT22;13082;52.374;4.946;2023-02-02T16:42:23;9.10;99.90
25092;DHT22;13082;52.374;4.946;2023-02-02T16:44:49;9.10;99.90
25092;DHT22;13082;52.374;4.946;2023-02-02T16:50:04;9.10;99.90
25092;DHT22;13082;52.374;4.946;2023-02-02T16:52:56;9.10;99.90
25092;DHT22;13082;52.374;4.946;2023-02-02T16:55:22;9.10;99.90
25092;DHT22;13082;52.374;4.946;2023-02-02T16:57:49;9.10;99.90
25092;DHT22;13082;52.374;4.946;2023-02-02T17:00:20;9.10;99.90
25092;DHT22;13082;52.374;4.946;2023-02-02T17:02:50;9.10;99.90
25092;DHT22;13082;52.374;4.946;2023-02-02T17:05:25;9.10;99.90
25092;DHT22;13082;52.374;4.946;2023-02-02T17:07:56;9.20;99.90
25092;DHT22;13082;52.374;4.946;2023-02-02T17:10:29;9.20;99.90
25092;DHT22;13082;52.374;4.946;2023-02-02T17:12:57;9.20;99.90
25092;DHT22;13082;52.374;4.946;2023-02-02T17:17:55;9.20;99.90
25092;DHT22;13082;52.374;4.946;2023-02-02T17:20:21;9.20;99.90
25092;DHT22;13082;52.374;4.946;2023-02-02T17:22:53;9.20;99.90
25092;DHT22;13082;52.374;4.946;2023-02-02T17:25:37;9.20;99.90
25092;DHT22;13082;52.374;4.946;2023-02-02T17:28:09;9.20;99.90
25092;DHT22;13082;52.374;4.946;2023-02-02T17:30:35;9.20;99.90
25092;DHT22;13082;52.374;4.946;2023-02-02T17:33:01;9.20;99.90
25092;DHT22;13082;52.374;4.946;2023-02-02T17:35:27;9.20;99.90
25092;DHT22;13082;52.374;4.946;2023-02-02T17:37:53;9.30;99.90
25092;DHT22;13082;52.374;4.946;2023-02-02T17:40:20;9.30;99.90
25092;DHT22;13082;52.374;4.946;2023-02-02T17:42:49;9.30;99.90
25092;DHT22;13082;52.374;4.946;2023-02-02T17:45:20;9.30;99.90
25092;DHT22;13082;52.374;4.946;2023-02-02T17:47:47;9.30;99.90
25092;DHT22;13082;52.374;4.946;2023-02-02T17:50:13;9.40;99.90
25092;DHT22;13082;52.374;4.946;2023-02-02T17:52:39;9.40;99.90
25092;DHT22;13082;52.374;4.946;2023-02-02T17:55:11;9.40;99.90
25092;DHT22;13082;52.374;4.946;2023-02-02T17:57:38;9.40;99.90
25092;DHT22;13082;52.374;4.946;2023-02-02T18:00:04;9.40;99.90
25092;DHT22;13082;52.374;4.946;2023-02-02T18:02:30;9.50;99.90
25092;DHT22;13082;52.374;4.946;2023-02-02T18:04:56;9.50;99.90
25092;DHT22;13082;52.374;4.946;2023-02-02T18:07:21;9.50;99.90
25092;DHT22;13082;52.374;4.946;2023-02-02T18:09:47;9.50;99.90
25092;DHT22;13082;52.374;4.946;2023-02-02T18:12:12;9.50;99.90
25092;DHT22;13082;52.374;4.946;2023-02-02T18:14:38;9.50;99.90
25092;DHT22;13082;52.374;4.946;2023-02-02T18:17:04;9.50;99.90
25092;DHT22;13082;52.374;4.946;2023-02-02T18:19:30;9.50;99.90
25092;DHT22;13082;52.374;4.946;2023-02-02T18:21:55;9.50;99.90
25092;DHT22;13082;52.374;4.946;2023-02-02T18:24:21;9.50;99.90
25092;DHT22;13082;52.374;4.946;2023-02-02T18:26:46;9.60;99.90
25092;DHT22;13082;52.374;4.946;2023-02-02T18:29:12;9.60;99.90
25092;DHT22;13082;52.374;4.946;2023-02-02T18:31:38;9.60;99.90
25092;DHT22;13082;52.374;4.946;2023-02-02T18:34:03;9.60;99.90
25092;DHT22;13082;52.374;4.946;2023-02-02T18:36:29;9.60;99.90
25092;DHT22;13082;52.374;4.946;2023-02-02T18:38:55;9.60;99.90
25092;DHT22;13082;52.374;4.946;2023-02-02T18:41:22;9.60;99.90
25092;DHT22;13082;52.374;4.946;2023-02-02T18:43:47;9.60;99.90
25092;DHT22;13082;52.374;4.946;2023-02-02T18:46:15;9.60;99.90
25092;DHT22;13082;52.374;4.946;2023-02-02T18:48:41;9.60;99.90
25092;DHT22;13082;52.374;4.946;2023-02-02T18:51:14;9.60;99.90
25092;DHT22;13082;52.374;4.946;2023-02-02T18:53:42;9.60;99.90
25092;DHT22;13082;52.374;4.946;2023-02-02T18:56:09;9.60;99.90
25092;DHT22;13082;52.374;4.946;2023-02-02T18:58:35;9.60;99.90
25092;DHT22;13082;52.374;4.946;2023-02-02T19:01:12;9.60;99.90
25092;DHT22;13082;52.374;4.946;2023-02-02T19:03:39;9.60;99.90
25092;DHT22;13082;52.374;4.946;2023-02-02T19:06:06;9.70;99.90
25092;DHT22;13082;52.374;4.946;2023-02-02T19:08:51;9.70;99.90